Time;durP1;ratioP1;P1;durP2;ratioP2;P2;SDS_P1;SDS_P2;PMS_P1;PMS_P2;Temp;Humidity;BMP_temperature;BMP_pressure;BME280_temperature;BME280_humidity;BME280_pressure;Samples;Min_cycle;Max_cycle;Signal;HPM_P1;HPM_P2
2023/04/17 00:00:36;;;;;;;1999.90;999.90;;;;;;;7.69;100.00;97773.41;5095251;28;20024;-75
2023/04/17 00:03:02;;;;;;;1999.90;999.90;;;;;;;7.69;100.00;97772.59;5112248;28;20039;-76
2023/04/17 00:05:27;;;;;;;1999.90;999.90;;;;;;;7.67;100.00;97775.63;5113643;28;20020;-76
2023/04/17 00:07:53;;;;;;;1999.90;999.90;;;;;;;7.65;100.00;97755.19;5114066;28;20026;-76
2023/04/17 00:10:19;;;;;;;1999.90;999.90;;;;;;;7.75;100.00;97764.13;5113912;28;20043;-75
2023/04/17 00:12:44;;;;;;;1999.90;999.90;;;;;;;7.77;100.00;97761.13;5115860;28;20063;-75
2023/04/17 00:15:10;;;;;;;1999.90;999.90;;;;;;;7.82;100.00;97759.19;5114601;28;20068;-74
2023/04/17 00:17:36;;;;;;;1999.90;999.90;;;;;;;7.67;100.00;97759.28;5116121;28;20397;-76
2023/04/17 00:20:04;;;;;;;1999.90;999.90;;;;;;;7.72;100.00;97744.81;5133703;27;20047;-75
2023/04/17 00:22:30;;;;;;;1999.90;999.90;;;;;;;7.76;100.00;97741.25;5133410;27;20030;-76
2023/04/17 00:24:55;;;;;;;1999.90;999.90;;;;;;;7.81;100.00;97757.53;5135239;27;20363;-75
2023/04/17 00:27:21;;;;;;;1999.90;999.90;;;;;;;7.75;100.00;97750.50;5134927;27;20029;-80
2023/04/17 00:29:46;;;;;;;1999.90;999.90;;;;;;;7.76;100.00;97756.78;5137526;27;20023;-75
2023/04/17 00:32:11;;;;;;;1999.90;999.90;;;;;;;7.61;100.00;97743.25;5138814;27;20027;-77
2023/04/17 00:34:39;;;;;;;1999.90;999.90;;;;;;;7.57;100.00;97739.47;5133566;27;20023;-76
2023/04/17 00:37:04;;;;;;;1999.90;999.90;;;;;;;7.68;100.00;97752.72;5114836;27;20357;-74
2023/04/17 00:39:30;;;;;;;1999.90;999.90;;;;;;;7.62;100.00;97750.31;5133641;27;20026;-78
2023/04/17 00:41:56;;;;;;;1999.90;999.90;;;;;;;7.71;100.00;97754.88;5132557;27;20030;-78
2023/04/17 00:44:21;;;;;;;1999.90;999.90;;;;;;;7.64;100.00;97737.25;5113987;27;20391;-77
2023/04/17 00:46:47;;;;;;;1999.90;999.90;;;;;;;7.55;100.00;97734.28;5132282;27;20080;-77
2023/04/17 00:49:14;;;;;;;1999.90;999.90;;;;;;;7.64;100.00;97742.69;5132843;27;20027;-75
2023/04/17 00:51:39;;;;;;;1999.90;999.90;;;;;;;7.66;100.00;97745.94;5132987;27;20024;-76
2023/04/17 00:54:06;;;;;;;1999.90;999.90;;;;;;;7.57;100.00;97742.19;5114043;27;20019;-77
2023/04/17 00:56:31;;;;;;;1999.90;999.90;;;;;;;7.47;100.00;97733.00;5113499;27;20391;-77
2023/04/17 00:59:00;;;;;;;1999.90;999.90;;;;;;;7.53;100.00;97736.50;5131950;27;20072;-77
2023/04/17 01:01:25;;;;;;;1999.90;999.90;;;;;;;7.64;100.00;97737.25;5131964;27;20019;-77
2023/04/17 01:03:52;;;;;;;1999.90;999.90;;;;;;;7.60;100.00;97719.84;5131486;27;20035;-79
2023/04/17 01:06:18;;;;;;;1999.90;999.90;;;;;;;7.58;100.00;97720.13;5131838;27;20027;-77
2023/04/17 01:08:44;;;;;;;1999.90;999.90;;;;;;;7.52;100.00;97713.91;5131550;28;20106;-76
2023/04/17 01:11:10;;;;;;;1999.90;999.90;;;;;;;7.69;100.00;97723.59;5131365;28;20110;-77
2023/04/17 01:13:53;;;;;;;1999.90;999.90;;;;;;;7.71;100.00;97730.38;5131543;27;20122;-78
2023/04/17 01:16:19;;;;;;;1999.90;999.90;;;;;;;7.65;100.00;97711.63;5131410;27;20035;-78
2023/04/17 01:18:48;;;;;;;1999.90;999.90;;;;;;;7.68;100.00;97719.25;5131388;28;20035;-78
2023/04/17 01:21:15;;;;;;;1999.90;999.90;;;;;;;7.68;100.00;97714.63;5131195;27;20027;-78
2023/04/17 01:23:51;;;;;;;1999.90;999.90;;;;;;;7.73;100.00;97720.03;5135269;27;20027;-78
2023/04/17 01:26:21;;;;;;;1999.90;999.90;;;;;;;7.70;100.00;97720.59;5132182;27;20083;-77
2023/04/17 01:28:55;;;;;;;1999.90;999.90;;;;;;;7.64;100.00;97716.28;5136504;27;20034;-77
2023/04/17 01:31:21;;;;;;;1999.90;999.90;;;;;;;7.63;100.00;97711.94;5136032;27;20023;-77
2023/04/17 01:33:47;;;;;;;1999.90;999.90;;;;;;;7.59;100.00;97696.44;5135849;27;20091;-76
2023/04/17 01:36:13;;;;;;;1999.90;999.90;;;;;;;7.55;100.00;97705.16;5136314;27;20102;-78
2023/04/17 01:38:39;;;;;;;1999.90;999.90;;;;;;;7.60;100.00;97700.78;5136417;27;20141;-77
2023/04/17 01:41:08;;;;;;;1999.90;999.90;;;;;;;7.58;100.00;97697.56;5136569;27;20043;-76
2023/04/17 01:43:36;;;;;;;1999.90;999.90;;;;;;;7.60;100.00;97703.53;5136721;27;20050;-77
2023/04/17 01:46:01;;;;;;;1999.90;999.90;;;;;;;7.61;100.00;97705.16;5117621;27;20027;-77
2023/04/17 01:48:26;;;;;;;1999.90;999.90;;;;;;;7.54;100.00;97695.41;5117538;27;20023;-76
2023/04/17 01:50:52;;;;;;;1999.90;999.90;;;;;;;7.53;100.00;97704.66;5136805;27;20054;-77
2023/04/17 01:53:17;;;;;;;1999.90;999.90;;;;;;;7.49;100.00;97713.66;5118525;27;20027;-75
2023/04/17 01:55:42;;;;;;;1999.90;999.90;;;;;;;7.50;100.00;97710.66;5139669;27;20475;-82
2023/04/17 01:58:08;;;;;;;1999.90;999.90;;;;;;;7.36;100.00;97698.75;5117579;27;20031;-76
2023/04/17 02:00:33;;;;;;;1999.90;999.90;;;;;;;7.31;100.00;97698.78;5116931;27;20084;-77
2023/04/17 02:02:58;;;;;;;1999.90;999.90;;;;;;;7.27;100.00;97705.06;5133787;27;20039;-76
2023/04/17 02:05:24;;;;;;;1999.90;999.90;;;;;;;7.23;100.00;97709.47;5127731;27;20023;-76
2023/04/17 02:07:50;;;;;;;1999.90;999.90;;;;;;;7.06;100.00;97690.75;5119424;27;20031;-77
2023/04/17 02:10:18;;;;;;;1999.90;999.90;;;;;;;7.09;100.00;97692.91;5115706;27;20826;-76
2023/04/17 02:12:44;;;;;;;1999.90;999.90;;;;;;;7.11;100.00;97711.69;5132376;27;20073;-76
2023/04/17 02:15:10;;;;;;;1999.90;999.90;;;;;;;7.05;100.00;97707.38;5115555;27;20395;-75
2023/04/17 02:17:35;;;;;;;1999.90;999.90;;;;;;;7.14;100.00;97722.81;5115986;27;20437;-77
2023/04/17 02:20:00;;;;;;;1999.90;999.90;;;;;;;7.20;100.00;97721.72;5135138;27;20084;-78
2023/04/17 02:22:26;;;;;;;1999.90;999.90;;;;;;;7.23;100.00;97720.34;5115744;27;20035;-79
2023/04/17 02:24:51;;;;;;;1999.90;999.90;;;;;;;7.32;100.00;97718.66;5135262;27;20035;-77
2023/04/17 02:27:16;;;;;;;1999.90;999.90;;;;;;;7.24;100.00;97701.00;5135696;27;20649;-76
2023/04/17 02:29:42;;;;;;;1999.90;999.90;;;;;;;7.29;100.00;97716.50;5135463;27;20031;-76
2023/04/17 02:32:07;;;;;;;1999.90;999.90;;;;;;;7.37;100.00;97721.34;5135454;27;20034;-77
2023/04/17 02:34:33;;;;;;;1999.90;999.90;;;;;;;7.40;100.00;97710.72;5135516;27;20019;-76
2023/04/17 02:36:58;;;;;;;1999.90;999.90;;;;;;;7.31;100.00;97703.41;5102434;27;20023;-78
2023/04/17 02:39:24;;;;;;;1999.90;999.90;;;;;;;7.40;100.00;97702.53;5139541;27;20031;-78
2023/04/17 02:41:49;;;;;;;1999.90;999.90;;;;;;;7.42;100.00;97705.00;5136721;27;20452;-77
2023/04/17 02:44:14;;;;;;;1999.90;999.90;;;;;;;7.33;100.00;97680.28;5135753;27;20033;-77
2023/04/17 02:46:40;;;;;;;1999.90;999.90;;;;;;;7.38;100.00;97704.75;5133714;27;20499;-75
2023/04/17 02:49:05;;;;;;;1999.90;999.90;;;;;;;7.31;100.00;97709.66;5150679;27;20027;-75
2023/04/17 02:51:31;;;;;;;1999.90;999.90;;;;;;;7.30;100.00;97707.25;5154052;27;20030;-75
2023/04/17 02:53:56;;;;;;;1999.90;999.90;;;;;;;7.39;100.00;97706.34;5136610;27;20079;-75
2023/04/17 02:56:21;;;;;;;1999.90;999.90;;;;;;;7.44;100.00;97711.78;5120968;27;20408;-76
2023/04/17 02:58:47;;;;;;;1999.90;999.90;;;;;;;7.46;100.00;97701.41;5113899;28;20026;-75
2023/04/17 03:01:12;;;;;;;1999.90;999.90;;;;;;;7.39;100.00;97709.06;5121000;27;20028;-75
2023/04/17 03:03:40;;;;;;;1999.90;999.90;;;;;;;7.48;100.00;97712.03;5134373;27;20375;-77
2023/04/17 03:06:07;;;;;;;1999.90;999.90;;;;;;;7.47;100.00;97703.06;5134171;27;20094;-77
2023/04/17 03:08:34;;;;;;;1999.90;999.90;;;;;;;7.26;100.00;97693.41;5133567;27;20509;-75
2023/04/17 03:11:01;;;;;;;1999.90;999.90;;;;;;;7.42;100.00;97703.06;5134292;27;20060;-75
2023/04/17 03:13:27;;;;;;;1999.90;999.90;;;;;;;7.36;100.00;97698.75;5125542;27;20082;-75
2023/04/17 03:15:52;;;;;;;1999.90;999.90;;;;;;;7.31;100.00;97696.06;5113819;28;20491;-76
2023/04/17 03:18:17;;;;;;;1999.90;999.90;;;;;;;7.39;100.00;97703.63;5114539;28;20522;-75
2023/04/17 03:20:43;;;;;;;1999.90;999.90;;;;;;;7.44;100.00;97681.84;5115023;28;20077;-75
2023/04/17 03:23:08;;;;;;;1999.90;999.90;;;;;;;7.41;100.00;97674.25;5118114;28;20043;-76
2023/04/17 03:25:34;;;;;;;1999.90;999.90;;;;;;;7.45;100.00;97686.22;5113755;28;20016;-75
2023/04/17 03:27:59;;;;;;;1999.90;999.90;;;;;;;7.43;100.00;97687.56;5113366;28;20533;-76
2023/04/17 03:30:24;;;;;;;1999.90;999.90;;;;;;;7.45;100.00;97694.38;5095733;28;20054;-76
2023/04/17 03:32:50;;;;;;;1999.90;999.90;;;;;;;7.53;100.00;97684.78;5094968;28;20031;-76
2023/04/17 03:35:15;;;;;;;1999.90;999.90;;;;;;;7.46;100.00;97670.66;5094630;28;20031;-76
2023/04/17 03:37:40;;;;;;;1999.90;999.90;;;;;;;7.60;100.00;97676.31;5127183;27;20388;-74
2023/04/17 03:40:06;;;;;;;1999.90;999.90;;;;;;;7.62;100.00;97669.47;5133681;27;20031;-75
2023/04/17 03:42:32;;;;;;;1999.90;999.90;;;;;;;7.62;100.00;97685.00;5133676;27;20019;-75
2023/04/17 03:44:57;;;;;;;1999.90;999.90;;;;;;;7.45;100.00;97678.03;5133070;27;20023;-74
2023/04/17 03:47:22;;;;;;;1999.90;999.90;;;;;;;7.30;100.00;97664.50;5133761;27;20046;-76
2023/04/17 03:49:48;;;;;;;1999.90;999.90;;;;;;;7.30;100.00;97652.84;5134445;27;20034;-79
2023/04/17 03:52:13;;;;;;;1999.90;999.90;;;;;;;7.28;100.00;97647.66;5134209;27;20499;-76
2023/04/17 03:54:39;;;;;;;1999.90;999.90;;;;;;;7.36;100.00;97665.31;5132766;27;20038;-75
2023/04/17 03:57:04;;;;;;;1999.90;999.90;;;;;;;7.44;100.00;97668.25;5114041;27;20019;-75
2023/04/17 03:59:30;;;;;;;1999.90;999.90;;;;;;;7.25;100.00;97661.00;5132704;27;20114;-75
2023/04/17 04:01:56;;;;;;;1999.90;999.90;;;;;;;7.38;100.00;97679.44;5132519;27;20034;-75
2023/04/17 04:04:21;;;;;;;1999.90;999.90;;;;;;;7.38;100.00;97691.16;5132234;27;20486;-78
2023/04/17 04:06:48;;;;;;;1999.90;999.90;;;;;;;7.24;100.00;97681.97;5132817;27;20026;-77
2023/04/17 04:09:13;;;;;;;1999.90;999.90;;;;;;;7.23;100.00;97698.56;5113865;27;20039;-75
2023/04/17 04:11:39;;;;;;;1999.90;999.90;;;;;;;7.11;100.00;97692.66;5115202;27;20031;-76
2023/04/17 04:14:04;;;;;;;1999.90;999.90;;;;;;;7.12;100.00;97697.81;5153755;27;20046;-74
2023/04/17 04:16:29;;;;;;;1999.90;999.90;;;;;;;7.04;100.00;97692.97;5154402;27;20486;-75
2023/04/17 04:18:55;;;;;;;1999.90;999.90;;;;;;;6.97;100.00;97695.97;5153465;27;20023;-76
2023/04/17 04:21:20;;;;;;;1999.90;999.90;;;;;;;7.01;100.00;97707.09;5152490;27;20027;-74
2023/04/17 04:23:45;;;;;;;1999.90;999.90;;;;;;;7.03;100.00;97717.69;5152666;27;20504;-75
2023/04/17 04:26:11;;;;;;;1999.90;999.90;;;;;;;6.94;100.00;97698.44;5153125;27;20047;-76
2023/04/17 04:28:37;;;;;;;1999.90;999.90;;;;;;;6.95;100.00;97691.91;5153033;27;20087;-75
2023/04/17 04:31:02;;;;;;;1999.90;999.90;;;;;;;7.00;100.00;97695.41;5144536;27;20080;-75
2023/04/17 04:33:29;;;;;;;1999.90;999.90;;;;;;;7.17;100.00;97700.50;5131965;27;20015;-75
2023/04/17 04:35:55;;;;;;;1999.90;999.90;;;;;;;7.26;100.00;97704.28;5131627;27;20053;-76
2023/04/17 04:38:29;;;;;;;1999.90;999.90;;;;;;;7.29;100.00;97697.44;5131103;27;20054;-77
2023/04/17 04:41:00;;;;;;;1999.90;999.90;;;;;;;7.34;100.00;97700.94;5113640;27;20027;-75
2023/04/17 04:43:29;;;;;;;1999.90;999.90;;;;;;;7.44;100.00;97705.53;5115218;27;20585;-75
2023/04/17 04:45:55;;;;;;;1999.90;999.90;;;;;;;7.34;100.00;97700.94;5134865;27;20398;-76
2023/04/17 04:48:20;;;;;;;1999.90;999.90;;;;;;;7.36;100.00;97700.69;5118046;27;20122;-76
2023/04/17 04:50:46;;;;;;;1999.90;999.90;;;;;;;7.33;100.00;97714.84;5126559;27;20433;-75
2023/04/17 04:53:11;;;;;;;1999.90;999.90;;;;;;;7.40;100.00;97708.00;5099217;28;20050;-76
2023/04/17 04:55:37;;;;;;;1999.90;999.90;;;;;;;7.52;100.00;97713.09;5112090;27;20037;-75
2023/04/17 04:58:02;;;;;;;1999.90;999.90;;;;;;;7.71;100.00;97716.78;5132403;27;20025;-75
2023/04/17 05:00:27;;;;;;;1999.90;999.90;;;;;;;7.75;100.00;97717.03;5115207;27;20023;-75
2023/04/17 05:02:53;;;;;;;1999.90;999.90;;;;;;;7.78;100.00;97714.56;5134507;27;20086;-75
2023/04/17 05:05:18;;;;;;;1999.90;999.90;;;;;;;7.81;100.00;97721.34;5133917;27;20027;-76
2023/04/17 05:07:44;;;;;;;1999.90;999.90;;;;;;;7.83;100.00;97714.50;5139362;27;20023;-75
2023/04/17 05:10:09;;;;;;;1999.90;999.90;;;;;;;7.98;100.00;97721.75;5112967;28;20384;-75
2023/04/17 05:12:35;;;;;;;1999.90;999.90;;;;;;;8.09;100.00;97715.13;5112588;28;20114;-75
2023/04/17 05:15:00;;;;;;;1999.90;999.90;;;;;;;8.02;100.00;97718.16;5131534;27;20015;-75
2023/04/17 05:17:25;;;;;;;1999.90;999.90;;;;;;;7.92;100.00;97720.19;5131678;28;20100;-77
2023/04/17 05:19:51;;;;;;;1999.90;999.90;;;;;;;8.01;100.00;97716.56;5131457;28;20023;-75
2023/04/17 05:22:16;;;;;;;1999.90;999.90;;;;;;;8.20;100.00;97724.84;5131855;28;20016;-75
2023/04/17 05:24:41;;;;;;;1999.90;999.90;;;;;;;8.38;100.00;97731.53;5131503;28;20058;-75
2023/04/17 05:27:07;;;;;;;1999.90;999.90;;;;;;;8.39;100.00;97712.19;5130810;28;20019;-75
2023/04/17 05:29:32;;;;;;;1999.90;999.90;;;;;;;8.44;100.00;97723.03;5131920;27;20097;-75
2023/04/17 05:31:57;;;;;;;1999.90;999.90;;;;;;;8.56;100.00;97722.63;5131170;28;20464;-76
2023/04/17 05:34:23;;;;;;;1999.90;999.90;;;;;;;8.55;100.00;97723.75;5131228;27;20027;-74
2023/04/17 05:36:51;;;;;;;1999.90;999.90;;;;;;;8.75;100.00;97730.88;5131012;28;20027;-74
2023/04/17 05:39:17;;;;;;;1999.90;999.90;;;;;;;8.77;100.00;97725.97;5131194;28;20031;-77
2023/04/17 05:41:43;;;;;;;1999.90;999.90;;;;;;;8.84;100.00;97729.97;5130988;27;20119;-75
2023/04/17 05:44:08;;;;;;;1999.90;999.90;;;;;;;8.76;100.00;97733.34;5111975;28;20118;-75
2023/04/17 05:46:34;;;;;;;1999.90;999.90;;;;;;;8.72;100.00;97726.81;5146444;27;20118;-75
2023/04/17 05:48:59;;;;;;;1999.90;999.90;;;;;;;8.75;100.00;97731.69;5151169;27;20030;-74
2023/04/17 05:51:25;;;;;;;1999.90;999.90;;;;;;;8.93;100.00;97732.84;5134504;27;20396;-74
2023/04/17 05:53:51;;;;;;;1999.90;999.90;;;;;;;9.05;100.00;97736.00;5130389;28;20067;-75
2023/04/17 05:56:17;;;;;;;1999.90;999.90;;;;;;;9.12;100.00;97753.63;5129929;28;20058;-74
2023/04/17 05:58:42;;;;;;;1999.90;999.90;;;;;;;9.26;100.00;97734.66;5131077;27;20062;-74
2023/04/17 06:01:09;;;;;;;1999.90;999.90;;;;;;;9.39;100.00;97741.31;5131814;27;20095;-75
2023/04/17 06:03:34;;;;;;;1999.90;999.90;;;;;;;9.62;100.00;97737.72;5130909;27;20035;-74
2023/04/17 06:06:00;;;;;;;1999.90;999.90;;;;;;;9.82;100.00;97739.34;5129870;28;20024;-74
2023/04/17 06:08:26;;;;;;;1999.90;999.90;;;;;;;10.02;100.00;97744.53;5130226;27;20114;-77
2023/04/17 06:10:52;;;;;;;1999.90;999.90;;;;;;;10.07;100.00;97733.50;5133937;27;20031;-75
2023/04/17 06:13:17;;;;;;;1999.90;999.90;;;;;;;10.09;100.00;97743.03;5135940;27;20778;-78
2023/04/17 06:15:43;;;;;;;1999.90;999.90;;;;;;;10.24;100.00;97746.66;5137967;27;20023;-76
2023/04/17 06:18:08;;;;;;;1999.90;999.90;;;;;;;10.03;100.00;97755.13;5134487;27;20034;-76
2023/04/17 06:20:34;;;;;;;1999.90;999.90;;;;;;;10.13;100.00;97765.94;5133971;27;20034;-74
2023/04/17 06:23:00;;;;;;;1999.90;999.90;;;;;;;10.02;100.00;97752.72;5132009;27;20023;-77
2023/04/17 06:25:26;;;;;;;1999.90;999.90;;;;;;;9.80;100.00;97766.97;5115012;27;20030;-75
2023/04/17 06:27:51;;;;;;;1999.90;999.90;;;;;;;10.12;100.00;97769.75;5133803;27;20023;-78
2023/04/17 06:30:16;;;;;;;1999.90;999.90;;;;;;;10.33;100.00;97766.75;5133281;27;20064;-76
2023/04/17 06:32:42;;;;;;;1999.90;999.90;;;;;;;10.56;100.00;97774.81;5132620;27;20110;-77
2023/04/17 06:35:09;;;;;;;1999.90;999.90;;;;;;;10.90;100.00;97771.75;5114965;27;20038;-76
2023/04/17 06:37:34;;;;;;;1999.90;999.90;;;;;;;11.41;100.00;97779.78;5115565;27;20015;-76
2023/04/17 06:40:00;;;;;;;1999.90;999.90;;;;;;;11.43;100.00;97784.97;5134812;27;20094;-76
2023/04/17 06:42:25;;;;;;;1999.90;999.90;;;;;;;11.58;100.00;97780.00;5114928;27;20041;-75
2023/04/17 06:44:50;;;;;;;1999.90;999.90;;;;;;;11.96;100.00;97783.31;5132749;27;20070;-76
2023/04/17 06:47:17;;;;;;;1999.90;999.90;;;;;;;12.41;100.00;97788.81;5115116;27;20471;-77
2023/04/17 06:49:42;;;;;;;1999.90;999.90;;;;;;;12.79;100.00;97790.06;5133417;27;20050;-75
2023/04/17 06:52:07;;;;;;;1999.90;999.90;;;;;;;12.76;100.00;97780.53;5135403;27;20078;-76
2023/04/17 06:54:34;;;;;;;1999.90;999.90;;;;;;;13.01;100.00;97791.97;5118056;27;20031;-77
2023/04/17 06:56:59;;;;;;;1999.90;999.90;;;;;;;13.18;99.53;97790.16;5123246;27;20031;-75
2023/04/17 06:59:25;;;;;;;1999.90;999.90;;;;;;;12.97;96.56;97777.28;5117309;27;20372;-75
2023/04/17 07:01:50;;;;;;;1999.90;999.90;;;;;;;13.11;92.42;97765.09;5133514;27;20035;-74
2023/04/17 07:04:16;;;;;;;1999.90;999.90;;;;;;;13.64;86.76;97788.88;5133750;27;20023;-76
2023/04/17 07:06:42;;;;;;;1999.90;999.90;;;;;;;13.73;83.87;97771.28;5134126;27;20051;-75
2023/04/17 07:09:07;;;;;;;1999.90;999.90;;;;;;;13.43;83.98;97777.66;5133704;27;20096;-74
2023/04/17 07:11:32;;;;;;;1999.90;999.90;;;;;;;13.56;82.38;97790.50;5134026;27;20031;-76
2023/04/17 07:13:58;;;;;;;1999.90;999.90;;;;;;;13.75;80.57;97784.72;5134442;27;20098;-74
2023/04/17 07:16:23;;;;;;;1999.90;999.90;;;;;;;13.82;79.48;97782.28;5133822;27;20031;-75
2023/04/17 07:18:50;;;;;;;1999.90;999.90;;;;;;;13.78;79.04;97793.09;5133719;27;20114;-75
2023/04/17 07:21:15;;;;;;;1999.90;999.90;;;;;;;13.73;79.36;97790.53;5115472;27;20051;-75
2023/04/17 07:23:41;;;;;;;1999.90;999.90;;;;;;;13.68;79.46;97776.94;5114812;27;20062;-74
2023/04/17 07:26:06;;;;;;;1999.90;999.90;;;;;;;13.69;78.43;97786.78;5133435;27;20027;-76
2023/04/17 07:28:33;;;;;;;1999.90;999.90;;;;;;;13.81;78.60;97773.22;5114689;27;20031;-75
2023/04/17 07:31:00;;;;;;;1999.90;999.90;;;;;;;14.05;76.45;97788.47;5133258;27;20104;-74
2023/04/17 07:33:25;;;;;;;1999.90;999.90;;;;;;;14.11;77.48;97778.94;5133327;27;20400;-77
2023/04/17 07:35:52;;;;;;;1999.90;999.90;;;;;;;14.59;75.41;97779.63;5133323;27;20019;-75
2023/04/17 07:38:17;;;;;;;1999.90;999.90;;;;;;;14.99;72.35;97792.03;5133826;27;20023;-76
2023/04/17 07:40:42;;;;;;;1999.90;999.90;;;;;;;15.08;70.58;97777.41;5117720;27;20107;-76
2023/04/17 07:43:08;;;;;;;1999.90;999.90;;;;;;;14.82;69.40;97781.03;5136422;27;20059;-76
2023/04/17 07:45:35;;;;;;;1999.90;999.90;;;;;;;14.86;71.05;97800.47;5132698;27;20031;-76
2023/04/17 07:48:01;;;;;;;1999.90;999.90;;;;;;;14.71;71.31;97782.53;5114274;27;20070;-78
2023/04/17 07:50:26;;;;;;;1999.90;999.90;;;;;;;14.48;71.30;97781.88;5133348;27;20472;-74
2023/04/17 07:52:51;;;;;;;1999.90;999.90;;;;;;;14.46;71.07;97794.38;5114433;27;20038;-75
2023/04/17 07:55:17;;;;;;;1999.90;999.90;;;;;;;14.42;70.16;97793.38;5114281;27;20095;-74
2023/04/17 07:57:45;;;;;;;1999.90;999.90;;;;;;;14.65;66.29;97796.78;5132675;27;20020;-77
2023/04/17 08:00:15;;;;;;;1999.90;999.90;;;;;;;14.79;65.99;97794.63;5114016;27;20030;-78
2023/04/17 08:02:41;;;;;;;1999.90;999.90;;;;;;;15.13;64.26;97796.53;5132210;27;20019;-74
2023/04/17 08:05:08;;;;;;;1999.90;999.90;;;;;;;15.53;63.20;97798.69;5132478;27;20585;-74
2023/04/17 08:07:33;;;;;;;1999.90;999.90;;;;;;;16.79;58.33;97801.22;5132619;27;20054;-74
2023/04/17 08:09:59;;;;;;;1999.90;999.90;;;;;;;17.71;53.67;97812.75;5132351;27;20179;-75
2023/04/17 08:12:24;;;;;;;1999.90;999.90;;;;;;;17.81;53.13;97812.31;5131927;27;20035;-77
2023/04/17 08:14:50;;;;;;;1999.90;999.90;;;;;;;17.89;51.83;97810.56;5132176;27;20023;-74
2023/04/17 08:17:18;;;;;;;1999.90;999.90;;;;;;;18.19;51.87;97820.25;5113897;27;20011;-75
2023/04/17 08:19:44;;;;;;;1999.90;999.90;;;;;;;17.81;52.28;97798.47;5114527;27;20411;-75
2023/04/17 08:22:09;;;;;;;1999.90;999.90;;;;;;;17.37;52.75;97797.38;5132424;27;20015;-74
2023/04/17 08:24:35;;;;;;;1999.90;999.90;;;;;;;17.90;52.65;97803.88;5131958;27;20031;-74
2023/04/17 08:27:00;;;;;;;1999.90;999.90;;;;;;;18.12;52.06;97806.16;5132132;27;20030;-74
2023/04/17 08:29:26;;;;;;;1999.90;999.90;;;;;;;18.23;52.24;97815.59;5132133;27;20535;-77
2023/04/17 08:31:51;;;;;;;1999.90;999.90;;;;;;;17.91;53.02;97805.50;5113240;27;20046;-75
2023/04/17 08:34:17;;;;;;;1999.90;999.90;;;;;;;18.12;52.89;97801.44;5131861;27;20023;-74
2023/04/17 08:36:42;;;;;;;1999.90;999.90;;;;;;;18.08;53.32;97800.53;5131986;27;21224;-76
2023/04/17 08:39:09;;;;;;;1999.90;999.90;;;;;;;17.51;54.83;97808.13;5131987;27;20046;-75
2023/04/17 08:41:53;;;;;;;1999.90;999.90;;;;;;;16.92;56.81;97797.38;5132097;27;20029;-75
2023/04/17 08:44:22;;;;;;;1999.90;999.90;;;;;;;16.86;58.35;97807.00;5113630;27;20487;-75
2023/04/17 08:46:48;;;;;;;1999.90;999.90;;;;;;;16.36;58.38;97798.81;5132689;27;20125;-74
2023/04/17 08:49:14;;;;;;;1999.90;999.90;;;;;;;17.06;57.32;97800.66;5132832;27;20033;-75
2023/04/17 08:51:41;;;;;;;1999.90;999.90;;;;;;;17.24;55.21;97792.97;5133702;27;20386;-75
2023/04/17 08:54:07;;;;;;;1999.90;999.90;;;;;;;17.70;53.77;97802.84;5114665;27;20049;-75
2023/04/17 08:56:32;;;;;;;1999.90;999.90;;;;;;;16.98;56.66;97790.47;5132407;27;20142;-77
2023/04/17 08:58:57;;;;;;;1999.90;999.90;;;;;;;16.99;58.18;97780.22;5132018;27;20048;-74
2023/04/17 09:01:23;;;;;;;1999.90;999.90;;;;;;;16.59;58.51;97793.78;5132680;27;20427;-75
2023/04/17 09:03:50;;;;;;;1999.90;999.90;;;;;;;16.06;60.08;97789.78;5136630;27;20064;-75
2023/04/17 09:06:16;;;;;;;1999.90;999.90;;;;;;;15.91;61.69;97803.34;5120207;28;20036;-75
2023/04/17 09:09:01;;;;;;;1999.90;999.90;;;;;;;15.72;61.72;97802.97;5118266;28;20127;-79
2023/04/17 09:11:27;;;;;;;1999.90;999.90;;;;;;;15.87;60.91;97789.41;5131481;27;20075;-75
2023/04/17 09:13:53;;;;;;;1999.90;999.90;;;;;;;15.74;61.19;97779.44;5131629;28;20429;-74
2023/04/17 09:16:19;;;;;;;1999.90;999.90;;;;;;;15.68;60.44;97786.28;5131226;28;20034;-77
2023/04/17 09:18:45;;;;;;;1999.90;999.90;;;;;;;15.53;61.99;97806.13;5131465;28;20066;-75
2023/04/17 09:21:12;;;;;;;1999.90;999.90;;;;;;;14.91;63.05;97801.09;5131751;27;20030;-76
2023/04/17 09:23:51;;;;;;;1999.90;999.90;;;;;;;15.03;63.59;97797.69;5131426;27;20138;-75
2023/04/17 09:26:25;;;;;;;1999.90;999.90;;;;;;;15.14;58.96;97778.84;5112886;28;20035;-75
2023/04/17 09:29:07;;;;;;;1999.90;999.90;;;;;;;15.50;57.00;97799.34;5131488;28;20152;-74
2023/04/17 09:31:34;;;;;;;1999.90;999.90;;;;;;;15.28;56.97;97788.53;5131393;27;20035;-75
2023/04/17 09:34:06;;;;;;;1999.90;999.90;;;;;;;15.36;56.63;97787.69;5131942;27;20019;-77
2023/04/17 09:36:38;;;;;;;1999.90;999.90;;;;;;;15.47;55.83;97801.91;5112907;28;20023;-75
2023/04/17 09:39:15;;;;;;;1999.90;999.90;;;;;;;15.25;55.75;97802.16;5133065;27;20031;-77
2023/04/17 09:41:40;;;;;;;1999.90;999.90;;;;;;;15.32;55.96;97803.25;5132423;27;20125;-75
2023/04/17 09:44:05;;;;;;;1999.90;999.90;;;;;;;15.53;56.11;97784.91;5132961;27;20110;-75
2023/04/17 09:46:39;;;;;;;1999.90;999.90;;;;;;;15.51;55.26;97794.63;5117406;27;20445;-76
2023/04/17 09:49:20;;;;;;;1999.90;999.90;;;;;;;15.30;54.83;97788.19;5135519;27;20384;-75
2023/04/17 09:51:46;;;;;;;1999.90;999.90;;;;;;;15.48;54.95;97789.75;5135749;27;20046;-75
2023/04/17 09:54:13;;;;;;;1999.90;999.90;;;;;;;15.84;53.97;97803.88;5116906;27;20114;-76
2023/04/17 09:56:40;;;;;;;1999.90;999.90;;;;;;;16.19;53.85;97778.81;5135782;27;20023;-76
2023/04/17 09:59:06;;;;;;;1999.90;999.90;;;;;;;17.04;52.55;97791.09;5135797;27;20418;-76
2023/04/17 10:01:33;;;;;;;1999.90;999.90;;;;;;;18.19;49.53;97796.13;5135968;27;20099;-75
2023/04/17 10:04:00;;;;;;;1999.90;999.90;;;;;;;18.57;47.14;97792.97;5135556;27;20057;-76
2023/04/17 10:06:26;;;;;;;1999.90;999.90;;;;;;;18.69;45.95;97789.31;5134789;27;20029;-77
2023/04/17 10:08:52;;;;;;;1999.90;999.90;;;;;;;18.26;47.52;97791.97;5134609;27;20429;-75
2023/04/17 10:11:18;;;;;;;1999.90;999.90;;;;;;;18.54;46.24;97790.84;5116271;27;20019;-75
2023/04/17 10:13:48;;;;;;;1999.90;999.90;;;;;;;18.36;46.09;97774.84;5134988;27;20375;-75
2023/04/17 10:16:14;;;;;;;1999.90;999.90;;;;;;;17.73;48.08;97768.16;5134912;27;20015;-73
2023/04/17 10:18:39;;;;;;;1999.90;999.90;;;;;;;17.16;49.40;97773.72;5135038;27;20103;-75
2023/04/17 10:21:23;;;;;;;1999.90;999.90;;;;;;;17.01;49.50;97770.44;5134419;27;20051;-74
2023/04/17 10:23:49;;;;;;;1999.90;999.90;;;;;;;16.68;50.31;97774.38;5135588;27;20027;-75
2023/04/17 10:26:29;;;;;;;1999.90;999.90;;;;;;;16.22;50.58;97764.34;5135122;27;20440;-74
2023/04/17 10:28:56;;;;;;;1999.90;999.90;;;;;;;16.02;51.61;97750.19;5116603;27;20518;-76
2023/04/17 10:31:42;;;;;;;1999.90;999.90;;;;;;;16.20;51.34;97763.84;5135696;27;20023;-76
2023/04/17 10:34:34;;;;;;;1999.90;999.90;;;;;;;16.17;50.91;97768.09;5136382;27;20055;-77
2023/04/17 10:37:00;;;;;;;1999.90;999.90;;;;;;;16.59;50.89;97755.13;5136303;27;20024;-75
2023/04/17 10:39:25;;;;;;;1999.90;999.90;;;;;;;16.82;49.86;97736.22;5134458;27;20038;-76
2023/04/17 10:42:06;;;;;;;1999.90;999.90;;;;;;;17.24;49.33;97747.91;5133825;27;20570;-76
2023/04/17 10:44:40;;;;;;;1999.90;999.90;;;;;;;17.35;49.18;97749.91;5133897;27;20035;-75
2023/04/17 10:47:09;;;;;;;1999.90;999.90;;;;;;;17.25;48.12;97747.59;5134231;27;20023;-76
2023/04/17 10:49:57;;;;;;;1999.90;999.90;;;;;;;17.00;47.96;97741.22;5134262;27;20042;-78
2023/04/17 10:52:49;;;;;;;1999.90;999.90;;;;;;;16.49;48.65;97727.88;5116079;27;20027;-75